ADDS METAR Data INFO
IDs: Format: Raw Decoded Include TAF

Data at: 1133 UTC 29 May 2017

KSSF 291111Z AUTO 36007KT 10SM BKN020 BKN039 22/19 A2990 RMK AO2 RAE1058 P0000 T02220194 $
KSSF 291053Z AUTO VRB05KT 10SM -RA SCT039 SCT060 SCT120 22/19 A2987 RMK AO2 PRESFR SLP103 P0002 T02220194 $
KSSF 290953Z AUTO 02005KT 10SM -RA BKN043 OVC050 23/19 A2993 RMK AO2 LTG DSNT SE AND SW RAB48 SLP122 P0000 T02280194 $
KSSF 290853Z AUTO 05007KT 10SM OVC038 23/19 A2992 RMK AO2 SLP119 60001 T02330194 55003 $
KSSF 290753Z AUTO 35004KT 10SM FEW027 22/19 A2990 RMK AO2 RAE05 SLP113 P0000 T02220194 $
KSSF 290749Z AUTO 34006KT 10SM SCT027 22/19 A2990 RMK AO2 RAE05 P0000 $
KSSF 290653Z AUTO 36007KT 10SM -RA SCT021 OVC026 22/19 A2993 RMK AO2 SLP122 P0001 T02220194 $
KSSF 290628Z AUTO 04006KT 10SM -RA BKN022 22/20 A2993 RMK AO2 P0000 T02220200 $
KSSF 290553Z AUTO 07011KT 10SM -RA FEW060 FEW080 BKN100 22/20 A2991 RMK AO2 SLP117 P0001 60010 T02220200 10317 20222 403560222 58003 $
KSSF 290453Z AUTO 04010KT 10SM -RA FEW100 23/19 A2999 RMK AO2 LTG DSNT E-S SLP143 P0001 T02280194 $
KSSF 290403Z AUTO 01012G16KT 10SM -RA FEW055 SCT100 BKN120 23/19 A2994 RMK AO2 LTG DSNT S PRESRR P0000 T02280194 $
KSSF 290353Z AUTO 09009KT 10SM VCTS -RA FEW055 SCT070 BKN100 23/20 A2992 RMK AO2 LTG DSNT S AND SW TSE32 SLP120 P0003 T02280200 $
KSSF 290338Z AUTO 13017KT 9SM VCTS RA BKN110 22/19 A2992 RMK AO2 LTG DSNT SE AND S TSE32 PRESFR P0002 T02220194 $
KSSF 290253Z 12011KT 10SM -TSRA FEW100 23/19 A2992 RMK AO2 LTG DSNT SW SLP120 P0005 60005 T02280194 53028 $
KSSF 290153Z 34009G18KT 10SM -TSRA FEW043 BKN080 OVC110 26/17 A2989 RMK AO2 LTG DSNT SW AND W RAB53 TSB31 SLP110 LTG OVHD ICCCCACG P0000 T02610172 $
KSSF 290131Z 04008KT 10SM TS SCT031 BKN040 OVC049 28/17 A2987 RMK AO2 LTG DSNT ALQDS TSB31 T02830172 $
KSSF 290053Z 10005KT 10SM CLR 31/23 A2985 RMK AO2 LTG DSNT NW-NE SLP095 T03060228 $
KSSF 282353Z 12010KT 10SM SCT046 32/23 A2984 RMK AO2 LTG DSNT NW SLP091 T03170228 10356 20317 53004 $
KSSF 282253Z 12010KT 10SM CLR 32/23 A2981 RMK AO2 SLP083 T03220228 $
KSSF 282153Z 14011G17KT 10SM SCT045 SCT050 33/23 A2982 RMK AO2 SLP084 T03330228 $
KSSF 282053Z 11012KT 9SM FEW039 SCT049 35/23 A2983 RMK AO2 PRESFR SLP086 T03500233 58016 $
KSSF 281953Z 14010G16KT 9SM BKN039 34/23 A2986 RMK AO2 SLP098 T03390228 $
KSSF 281853Z 10010KT 9SM BKN036 33/23 A2987 RMK AO2 SLP100 T03280228 $
KSSF 281753Z 07007KT 9SM SCT031 32/23 A2987 RMK AO2 SLP103 T03220228 10328 20250 58002 $
KSSF 281727Z 14008KT 8SM BKN030 32/23 A2988 RMK AO2 T03170228 $
KSSF 281653Z 10007KT 8SM BKN028 OVC035 31/23 A2988 RMK AO2 SLP106 T03110233 $
KSSF 281651Z VRB04KT 8SM BKN028 BKN035 31/23 A2988 RMK AO2 $
KSSF 281622Z 12007KT 9SM BKN030 OVC038 31/23 A2988 RMK AO2 T03110233 $
KSSF 281553Z 11004KT 9SM OVC021 30/23 A2988 RMK AO2 SLP106 T03000233 $
KSSF 281532Z VRB04KT 9SM BKN020 30/23 A2987 RMK AO2 PRESRR T03000228 $
KSSF 281517Z 15009KT 9SM SCT017 29/23 A2985 RMK AO2 T02940228 $
KSSF 281506Z 14011KT 9SM BKN017 29/23 A2986 RMK AO2 T02940233 $
KSSF 281453Z 15008KT 10SM SCT015 29/23 A2986 RMK AO2 SLP098 T02940233 50004 $
KSSF 281353Z 13005KT 9SM BKN012 OVC022 27/23 A2987 RMK AO2 SLP101 T02720233 $
KSSF 281326Z 07004KT 9SM BKN013 OVC020 27/23 A2986 RMK AO2 T02670233 $
KSSF 281253Z 08003KT 10SM FEW014 OVC020 26/23 A2985 RMK AO2 SLP096 T02610228 $
KSSF 281218Z 06003KT 9SM OVC015 26/23 A2985 RMK AO2 T02560228 $
KSSF 281153Z 03003KT 9SM OVC012 25/23 A2984 RMK AO2 SLP092 T02500228 10261 20233 53020 $
KSSF 281053Z AUTO 01003KT 9SM BKN013 OVC019 24/22 A2982 RMK AO2 SLP082 T02390217 $
KSSF 281021Z AUTO 00000KT 8SM BKN020 23/22 A2980 RMK AO2 T02330217 $
KSSF 280953Z AUTO 00000KT 8SM CLR 23/22 A2980 RMK AO2 SLP075 T02330217 $
KSSF 280853Z AUTO 00000KT 10SM CLR 24/22 A2978 RMK AO2 SLP071 T02440222 58006 $
KSSF 280753Z AUTO 12004KT 10SM CLR 25/23 A2980 RMK AO2 SLP078 T02500228 $
KSSF 280653Z AUTO 15007KT 10SM CLR 26/23 A2982 RMK AO2 SLP082 T02610228 $
KSSF 280553Z AUTO 14010G19KT 10SM CLR 26/23 A2980 RMK AO2 SLP077 T02610228 10344 20261 403780261 58019 $
KSSF 280453Z AUTO 14010KT 10SM CLR 27/23 A2985 RMK AO2 SLP094 T02670233 $
KSSF 280353Z AUTO 13011KT 10SM CLR 27/23 A2986 RMK AO2 SLP098 T02720233 $
KSSF 280253Z 14009KT 10SM CLR 28/23 A2986 RMK AO2 SLP099 T02830233 53030 $
KSSF 280153Z 13011KT 10SM CLR 30/24 A2981 RMK AO2 SLP082 T03000239 $
KSSF 280053Z 13013G21KT 10SM CLR 32/23 A2979 RMK AO2 SLP073 T03220233 $
KSSF 272353Z 13015KT 10SM CLR 34/24 A2977 RMK AO2 SLP067 T03440239 10378 20344 55008 $


Page loaded:  11:33 UTC  |   04:33 AM Pacific  |   05:33 AM Mountain  |   06:33 AM Central  |   07:33 AM Eastern

 

ADVISORIES

FORECASTS

FORECASTS

OBSERVATIONS

USER TOOLS

ABOUT US